sensor_id;sensor_type;location;lat;lon;timestamp;P1;durP1;ratioP1;P2;durP2;ratioP2
2652;SDS011;1336;48.692;9.144;2022-12-18T06:00:18;31.13;;;27.63;;
2652;SDS011;1336;48.692;9.144;2022-12-18T06:01:11;38.08;;;34.00;;
2652;SDS011;1336;48.692;9.144;2022-12-18T06:02:03;34.75;;;30.80;;
2652;SDS011;1336;48.692;9.144;2022-12-18T06:02:54;35.65;;;30.17;;
2652;SDS011;1336;48.692;9.144;2022-12-18T06:03:45;36.17;;;32.35;;
2652;SDS011;1336;48.692;9.144;2022-12-18T06:04:37;37.72;;;32.00;;
2652;SDS011;1336;48.692;9.144;2022-12-18T06:05:28;37.93;;;32.37;;
2652;SDS011;1336;48.692;9.144;2022-12-18T06:06:20;37.05;;;32.78;;
2652;SDS011;1336;48.692;9.144;2022-12-18T06:07:12;34.58;;;30.88;;
2652;SDS011;1336;48.692;9.144;2022-12-18T06:08:04;36.97;;;32.92;;
2652;SDS011;1336;48.692;9.144;2022-12-18T06:08:55;36.25;;;32.38;;
2652;SDS011;1336;48.692;9.144;2022-12-18T06:09:47;36.30;;;32.40;;
2652;SDS011;1336;48.692;9.144;2022-12-18T06:10:38;34.87;;;30.73;;
2652;SDS011;1336;48.692;9.144;2022-12-18T06:11:30;35.10;;;29.60;;
2652;SDS011;1336;48.692;9.144;2022-12-18T06:12:21;35.97;;;31.93;;
2652;SDS011;1336;48.692;9.144;2022-12-18T06:13:13;32.88;;;29.38;;
2652;SDS011;1336;48.692;9.144;2022-12-18T06:14:04;33.23;;;29.93;;
2652;SDS011;1336;48.692;9.144;2022-12-18T06:14:57;31.95;;;28.55;;
2652;SDS011;1336;48.692;9.144;2022-12-18T06:15:49;33.00;;;29.40;;
2652;SDS011;1336;48.692;9.144;2022-12-18T06:16:40;33.63;;;29.73;;
2652;SDS011;1336;48.692;9.144;2022-12-18T06:17:32;31.73;;;28.33;;
2652;SDS011;1336;48.692;9.144;2022-12-18T06:18:24;31.85;;;28.45;;
2652;SDS011;1336;48.692;9.144;2022-12-18T06:19:15;32.77;;;28.30;;
2652;SDS011;1336;48.692;9.144;2022-12-18T06:20:07;31.48;;;28.10;;
2652;SDS011;1336;48.692;9.144;2022-12-18T06:20:59;31.10;;;27.95;;
2652;SDS011;1336;48.692;9.144;2022-12-18T06:21:51;33.13;;;29.70;;
2652;SDS011;1336;48.692;9.144;2022-12-18T06:22:43;30.25;;;27.00;;
2652;SDS011;1336;48.692;9.144;2022-12-18T06:23:34;29.60;;;26.48;;
2652;SDS011;1336;48.692;9.144;2022-12-18T06:24:25;31.27;;;27.67;;
2652;SDS011;1336;48.692;9.144;2022-12-18T06:25:17;31.55;;;28.27;;
2652;SDS011;1336;48.692;9.144;2022-12-18T06:26:09;32.20;;;28.80;;
2652;SDS011;1336;48.692;9.144;2022-12-18T06:27:02;32.90;;;29.02;;
2652;SDS011;1336;48.692;9.144;2022-12-18T06:27:53;33.70;;;30.10;;
2652;SDS011;1336;48.692;9.144;2022-12-18T06:28:45;35.45;;;31.10;;
2652;SDS011;1336;48.692;9.144;2022-12-18T06:29:35;34.10;;;30.63;;
2652;SDS011;1336;48.692;9.144;2022-12-18T06:30:27;34.92;;;30.58;;
2652;SDS011;1336;48.692;9.144;2022-12-18T06:31:19;35.93;;;30.57;;
2652;SDS011;1336;48.692;9.144;2022-12-18T06:32:11;34.97;;;31.27;;
2652;SDS011;1336;48.692;9.144;2022-12-18T06:33:02;32.43;;;28.90;;
2652;SDS011;1336;48.692;9.144;2022-12-18T06:33:53;34.13;;;30.42;;
2652;SDS011;1336;48.692;9.144;2022-12-18T06:34:44;31.90;;;28.50;;
2652;SDS011;1336;48.692;9.144;2022-12-18T06:35:36;32.83;;;29.23;;
2652;SDS011;1336;48.692;9.144;2022-12-18T06:36:26;35.53;;;31.30;;
2652;SDS011;1336;48.692;9.144;2022-12-18T06:37:21;32.80;;;29.10;;
2652;SDS011;1336;48.692;9.144;2022-12-18T06:38:14;32.58;;;28.98;;
2652;SDS011;1336;48.692;9.144;2022-12-18T06:39:06;32.20;;;28.92;;
2652;SDS011;1336;48.692;9.144;2022-12-18T06:39:57;44.73;;;32.13;;
2652;SDS011;1336;48.692;9.144;2022-12-18T06:40:49;34.20;;;30.83;;
2652;SDS011;1336;48.692;9.144;2022-12-18T06:41:39;33.30;;;29.80;;
2652;SDS011;1336;48.692;9.144;2022-12-18T06:42:31;32.67;;;29.27;;
2652;SDS011;1336;48.692;9.144;2022-12-18T06:43:22;34.27;;;30.67;;
2652;SDS011;1336;48.692;9.144;2022-12-18T06:44:14;32.53;;;29.02;;
2652;SDS011;1336;48.692;9.144;2022-12-18T06:45:05;28.90;;;26.13;;
2652;SDS011;1336;48.692;9.144;2022-12-18T06:45:58;28.27;;;25.38;;
2652;SDS011;1336;48.692;9.144;2022-12-18T06:46:50;30.60;;;27.38;;
2652;SDS011;1336;48.692;9.144;2022-12-18T06:47:42;30.50;;;26.90;;
2652;SDS011;1336;48.692;9.144;2022-12-18T06:48:33;29.02;;;26.13;;
2652;SDS011;1336;48.692;9.144;2022-12-18T06:49:25;30.45;;;27.25;;
2652;SDS011;1336;48.692;9.144;2022-12-18T06:50:15;29.93;;;26.80;;
2652;SDS011;1336;48.692;9.144;2022-12-18T06:51:07;31.13;;;27.83;;
2652;SDS011;1336;48.692;9.144;2022-12-18T06:51:58;30.93;;;27.20;;
2652;SDS011;1336;48.692;9.144;2022-12-18T06:52:50;31.50;;;27.83;;
2652;SDS011;1336;48.692;9.144;2022-12-18T06:53:40;32.07;;;28.60;;
2652;SDS011;1336;48.692;9.144;2022-12-18T06:54:32;35.13;;;29.85;;
2652;SDS011;1336;48.692;9.144;2022-12-18T06:55:23;35.07;;;29.87;;
2652;SDS011;1336;48.692;9.144;2022-12-18T06:56:14;33.53;;;30.02;;
2652;SDS011;1336;48.692;9.144;2022-12-18T06:57:05;34.75;;;30.38;;
2652;SDS011;1336;48.692;9.144;2022-12-18T06:57:57;31.75;;;28.45;;
2652;SDS011;1336;48.692;9.144;2022-12-18T06:58:48;33.40;;;29.60;;
2652;SDS011;1336;48.692;9.144;2022-12-18T06:59:39;29.75;;;26.75;;
2652;SDS011;1336;48.692;9.144;2022-12-18T07:00:30;30.67;;;27.50;;
2652;SDS011;1336;48.692;9.144;2022-12-18T07:01:22;31.35;;;28.15;;
2652;SDS011;1336;48.692;9.144;2022-12-18T07:02:14;29.83;;;26.83;;
2652;SDS011;1336;48.692;9.144;2022-12-18T07:03:06;30.38;;;26.98;;
2652;SDS011;1336;48.692;9.144;2022-12-18T07:03:56;32.57;;;29.37;;
2652;SDS011;1336;48.692;9.144;2022-12-18T07:04:48;32.20;;;28.70;;
2652;SDS011;1336;48.692;9.144;2022-12-18T07:05:39;33.40;;;29.87;;
2652;SDS011;1336;48.692;9.144;2022-12-18T07:06:31;32.05;;;28.75;;
2652;SDS011;1336;48.692;9.144;2022-12-18T07:07:22;31.57;;;28.30;;
2652;SDS011;1336;48.692;9.144;2022-12-18T07:08:14;30.17;;;27.08;;
2652;SDS011;1336;48.692;9.144;2022-12-18T07:09:04;27.73;;;25.03;;
2652;SDS011;1336;48.692;9.144;2022-12-18T07:09:56;32.40;;;29.15;;
2652;SDS011;1336;48.692;9.144;2022-12-18T07:10:47;30.80;;;27.80;;
2652;SDS011;1336;48.692;9.144;2022-12-18T07:11:39;28.38;;;25.58;;
2652;SDS011;1336;48.692;9.144;2022-12-18T07:12:30;28.90;;;26.00;;
2652;SDS011;1336;48.692;9.144;2022-12-18T07:13:21;27.65;;;24.67;;
2652;SDS011;1336;48.692;9.144;2022-12-18T07:14:12;29.13;;;26.10;;
2652;SDS011;1336;48.692;9.144;2022-12-18T07:15:04;30.30;;;27.25;;
2652;SDS011;1336;48.692;9.144;2022-12-18T07:16:02;29.52;;;26.55;;
2652;SDS011;1336;48.692;9.144;2022-12-18T07:16:55;27.85;;;24.95;;
2652;SDS011;1336;48.692;9.144;2022-12-18T07:17:47;29.90;;;26.77;;
2652;SDS011;1336;48.692;9.144;2022-12-18T07:18:39;29.23;;;26.05;;
2652;SDS011;1336;48.692;9.144;2022-12-18T07:19:29;29.90;;;26.80;;
2652;SDS011;1336;48.692;9.144;2022-12-18T07:20:21;29.35;;;26.48;;
2652;SDS011;1336;48.692;9.144;2022-12-18T07:21:14;30.40;;;27.30;;
2652;SDS011;1336;48.692;9.144;2022-12-18T07:22:07;32.83;;;29.42;;
2652;SDS011;1336;48.692;9.144;2022-12-18T07:22:58;31.70;;;28.40;;
2652;SDS011;1336;48.692;9.144;2022-12-18T07:23:50;30.48;;;27.38;;
2652;SDS011;1336;48.692;9.144;2022-12-18T07:24:40;33.20;;;29.80;;
2652;SDS011;1336;48.692;9.144;2022-12-18T07:25:33;33.63;;;30.42;;
2652;SDS011;1336;48.692;9.144;2022-12-18T07:26:24;37.42;;;33.67;;
2652;SDS011;1336;48.692;9.144;2022-12-18T07:27:16;31.75;;;28.58;;
2652;SDS011;1336;48.692;9.144;2022-12-18T07:28:07;32.53;;;28.93;;
2652;SDS011;1336;48.692;9.144;2022-12-18T07:28:58;32.65;;;29.35;;
2652;SDS011;1336;48.692;9.144;2022-12-18T07:29:49;31.63;;;28.33;;
2652;SDS011;1336;48.692;9.144;2022-12-18T07:30:41;30.63;;;27.52;;
2652;SDS011;1336;48.692;9.144;2022-12-18T07:31:31;34.10;;;29.00;;
2652;SDS011;1336;48.692;9.144;2022-12-18T07:32:23;32.42;;;28.48;;
2652;SDS011;1336;48.692;9.144;2022-12-18T07:33:15;30.63;;;27.13;;
2652;SDS011;1336;48.692;9.144;2022-12-18T07:34:09;32.75;;;29.35;;
2652;SDS011;1336;48.692;9.144;2022-12-18T07:35:00;33.13;;;28.75;;
2652;SDS011;1336;48.692;9.144;2022-12-18T07:35:52;29.25;;;26.38;;
2652;SDS011;1336;48.692;9.144;2022-12-18T07:36:42;29.97;;;26.83;;
2652;SDS011;1336;48.692;9.144;2022-12-18T07:37:34;30.17;;;27.08;;
2652;SDS011;1336;48.692;9.144;2022-12-18T07:38:25;31.30;;;28.10;;
2652;SDS011;1336;48.692;9.144;2022-12-18T07:39:17;31.88;;;28.45;;
2652;SDS011;1336;48.692;9.144;2022-12-18T07:40:08;34.53;;;30.93;;
2652;SDS011;1336;48.692;9.144;2022-12-18T07:41:00;31.75;;;28.45;;
2652;SDS011;1336;48.692;9.144;2022-12-18T07:41:52;45.63;;;33.00;;
2652;SDS011;1336;48.692;9.144;2022-12-18T07:42:58;41.85;;;32.53;;
2652;SDS011;1336;48.692;9.144;2022-12-18T07:43:50;42.95;;;33.78;;
2652;SDS011;1336;48.692;9.144;2022-12-18T07:44:40;37.33;;;32.80;;
2652;SDS011;1336;48.692;9.144;2022-12-18T07:45:32;36.70;;;32.78;;
2652;SDS011;1336;48.692;9.144;2022-12-18T07:46:23;39.00;;;34.03;;
2652;SDS011;1336;48.692;9.144;2022-12-18T07:47:14;39.20;;;34.45;;
2652;SDS011;1336;48.692;9.144;2022-12-18T07:48:05;39.53;;;35.30;;
2652;SDS011;1336;48.692;9.144;2022-12-18T07:48:58;36.55;;;32.58;;
2652;SDS011;1336;48.692;9.144;2022-12-18T07:49:49;39.65;;;34.17;;
2652;SDS011;1336;48.692;9.144;2022-12-18T07:50:41;40.28;;;33.85;;
2652;SDS011;1336;48.692;9.144;2022-12-18T07:51:31;40.30;;;33.53;;
2652;SDS011;1336;48.692;9.144;2022-12-18T07:52:23;40.75;;;34.65;;
2652;SDS011;1336;48.692;9.144;2022-12-18T07:53:14;45.00;;;37.40;;
2652;SDS011;1336;48.692;9.144;2022-12-18T07:54:06;43.47;;;37.47;;
2652;SDS011;1336;48.692;9.144;2022-12-18T07:54:56;40.80;;;36.27;;
2652;SDS011;1336;48.692;9.144;2022-12-18T07:55:48;44.10;;;39.13;;
2652;SDS011;1336;48.692;9.144;2022-12-18T07:56:39;46.47;;;41.50;;
2652;SDS011;1336;48.692;9.144;2022-12-18T07:57:31;43.80;;;39.30;;
2652;SDS011;1336;48.692;9.144;2022-12-18T07:58:21;52.27;;;46.60;;
2652;SDS011;1336;48.692;9.144;2022-12-18T07:59:13;56.88;;;50.88;;
2652;SDS011;1336;48.692;9.144;2022-12-18T08:00:05;52.97;;;47.35;;
2652;SDS011;1336;48.692;9.144;2022-12-18T08:01:02;50.42;;;45.33;;
2652;SDS011;1336;48.692;9.144;2022-12-18T08:01:54;45.63;;;41.03;;
2652;SDS011;1336;48.692;9.144;2022-12-18T08:02:45;40.00;;;35.87;;
2652;SDS011;1336;48.692;9.144;2022-12-18T08:03:38;37.38;;;33.55;;
2652;SDS011;1336;48.692;9.144;2022-12-18T08:04:31;40.75;;;36.00;;
2652;SDS011;1336;48.692;9.144;2022-12-18T08:05:22;39.13;;;34.92;;
2652;SDS011;1336;48.692;9.144;2022-12-18T08:06:13;40.67;;;36.27;;
2652;SDS011;1336;48.692;9.144;2022-12-18T08:07:05;37.08;;;33.08;;
2652;SDS011;1336;48.692;9.144;2022-12-18T08:07:56;38.90;;;34.70;;
2652;SDS011;1336;48.692;9.144;2022-12-18T08:08:50;35.58;;;31.40;;
2652;SDS011;1336;48.692;9.144;2022-12-18T08:09:41;35.17;;;31.38;;
2652;SDS011;1336;48.692;9.144;2022-12-18T08:10:33;38.92;;;33.55;;
2652;SDS011;1336;48.692;9.144;2022-12-18T08:11:24;39.73;;;35.10;;
2652;SDS011;1336;48.692;9.144;2022-12-18T08:12:19;41.45;;;35.15;;
2652;SDS011;1336;48.692;9.144;2022-12-18T08:13:10;44.73;;;37.30;;
2652;SDS011;1336;48.692;9.144;2022-12-18T08:14:02;49.58;;;39.05;;
2652;SDS011;1336;48.692;9.144;2022-12-18T08:14:52;42.07;;;34.67;;
2652;SDS011;1336;48.692;9.144;2022-12-18T08:15:44;38.33;;;33.70;;
2652;SDS011;1336;48.692;9.144;2022-12-18T08:16:35;41.87;;;34.03;;
2652;SDS011;1336;48.692;9.144;2022-12-18T08:17:27;38.22;;;30.77;;
2652;SDS011;1336;48.692;9.144;2022-12-18T08:18:17;33.93;;;30.03;;
2652;SDS011;1336;48.692;9.144;2022-12-18T08:19:09;33.40;;;28.75;;
2652;SDS011;1336;48.692;9.144;2022-12-18T08:20:01;32.37;;;27.70;;
2652;SDS011;1336;48.692;9.144;2022-12-18T08:20:53;29.70;;;26.58;;
2652;SDS011;1336;48.692;9.144;2022-12-18T08:21:44;30.17;;;25.60;;
2652;SDS011;1336;48.692;9.144;2022-12-18T08:22:36;28.42;;;25.52;;
2652;SDS011;1336;48.692;9.144;2022-12-18T08:23:27;28.97;;;25.87;;
2652;SDS011;1336;48.692;9.144;2022-12-18T08:24:18;30.42;;;26.88;;
2652;SDS011;1336;48.692;9.144;2022-12-18T08:25:09;30.53;;;27.33;;
2652;SDS011;1336;48.692;9.144;2022-12-18T08:26:01;32.97;;;29.67;;
2652;SDS011;1336;48.692;9.144;2022-12-18T08:26:52;30.53;;;27.33;;
2652;SDS011;1336;48.692;9.144;2022-12-18T08:27:44;33.85;;;30.45;;
2652;SDS011;1336;48.692;9.144;2022-12-18T08:28:34;33.93;;;30.23;;
2652;SDS011;1336;48.692;9.144;2022-12-18T08:29:26;35.88;;;32.08;;
2652;SDS011;1336;48.692;9.144;2022-12-18T08:30:17;36.10;;;32.40;;
2652;SDS011;1336;48.692;9.144;2022-12-18T08:31:09;36.30;;;32.65;;
2652;SDS011;1336;48.692;9.144;2022-12-18T08:32:00;37.60;;;33.78;;
2652;SDS011;1336;48.692;9.144;2022-12-18T08:32:52;37.40;;;33.50;;
2652;SDS011;1336;48.692;9.144;2022-12-18T08:33:43;38.53;;;34.57;;
2652;SDS011;1336;48.692;9.144;2022-12-18T08:34:34;37.53;;;33.65;;
2652;SDS011;1336;48.692;9.144;2022-12-18T08:35:27;34.53;;;31.00;;
2652;SDS011;1336;48.692;9.144;2022-12-18T08:36:18;34.13;;;30.67;;
2652;SDS011;1336;48.692;9.144;2022-12-18T08:37:09;33.92;;;30.52;;
2652;SDS011;1336;48.692;9.144;2022-12-18T08:38:01;32.75;;;29.45;;
2652;SDS011;1336;48.692;9.144;2022-12-18T08:38:52;31.37;;;28.00;;
2652;SDS011;1336;48.692;9.144;2022-12-18T08:39:44;32.58;;;28.92;;
2652;SDS011;1336;48.692;9.144;2022-12-18T08:40:34;33.37;;;28.90;;
2652;SDS011;1336;48.692;9.144;2022-12-18T08:41:26;33.25;;;28.45;;
2652;SDS011;1336;48.692;9.144;2022-12-18T08:42:17;32.67;;;29.00;;
2652;SDS011;1336;48.692;9.144;2022-12-18T08:43:26;30.60;;;27.40;;
2652;SDS011;1336;48.692;9.144;2022-12-18T08:44:36;33.25;;;28.48;;
2652;SDS011;1336;48.692;9.144;2022-12-18T08:45:31;31.80;;;28.40;;
2652;SDS011;1336;48.692;9.144;2022-12-18T08:46:22;28.80;;;25.57;;
2652;SDS011;1336;48.692;9.144;2022-12-18T08:47:16;30.80;;;26.90;;
2652;SDS011;1336;48.692;9.144;2022-12-18T08:48:07;30.77;;;26.67;;
2652;SDS011;1336;48.692;9.144;2022-12-18T08:48:58;32.30;;;27.23;;
2652;SDS011;1336;48.692;9.144;2022-12-18T08:49:49;35.77;;;26.60;;
2652;SDS011;1336;48.692;9.144;2022-12-18T08:50:42;31.15;;;26.52;;
2652;SDS011;1336;48.692;9.144;2022-12-18T08:51:33;30.70;;;26.95;;
2652;SDS011;1336;48.692;9.144;2022-12-18T08:52:25;29.92;;;26.70;;
2652;SDS011;1336;48.692;9.144;2022-12-18T08:53:16;34.37;;;28.97;;
2652;SDS011;1336;48.692;9.144;2022-12-18T08:54:08;30.25;;;26.90;;
2652;SDS011;1336;48.692;9.144;2022-12-18T08:55:01;31.23;;;27.92;;
2652;SDS011;1336;48.692;9.144;2022-12-18T08:55:53;32.45;;;27.27;;
2652;SDS011;1336;48.692;9.144;2022-12-18T08:56:47;28.30;;;25.27;;
2652;SDS011;1336;48.692;9.144;2022-12-18T08:57:38;32.87;;;27.60;;
2652;SDS011;1336;48.692;9.144;2022-12-18T08:58:29;31.23;;;27.15;;
2652;SDS011;1336;48.692;9.144;2022-12-18T08:59:20;33.83;;;27.57;;
2652;SDS011;1336;48.692;9.144;2022-12-18T09:00:13;29.15;;;25.70;;
2652;SDS011;1336;48.692;9.144;2022-12-18T09:01:05;32.08;;;26.60;;
2652;SDS011;1336;48.692;9.144;2022-12-18T09:01:58;32.13;;;27.52;;
2652;SDS011;1336;48.692;9.144;2022-12-18T09:02:49;28.60;;;24.23;;
2652;SDS011;1336;48.692;9.144;2022-12-18T09:03:41;32.50;;;26.25;;
2652;SDS011;1336;48.692;9.144;2022-12-18T09:04:31;33.03;;;27.97;;
2652;SDS011;1336;48.692;9.144;2022-12-18T09:05:23;33.17;;;28.25;;
2652;SDS011;1336;48.692;9.144;2022-12-18T09:06:15;31.10;;;27.13;;
2652;SDS011;1336;48.692;9.144;2022-12-18T09:07:08;32.92;;;28.08;;
2652;SDS011;1336;48.692;9.144;2022-12-18T09:07:59;30.83;;;26.87;;
2652;SDS011;1336;48.692;9.144;2022-12-18T09:08:51;29.27;;;23.88;;
2652;SDS011;1336;48.692;9.144;2022-12-18T09:09:41;29.57;;;24.07;;
2652;SDS011;1336;48.692;9.144;2022-12-18T09:10:33;26.65;;;22.10;;
2652;SDS011;1336;48.692;9.144;2022-12-18T09:11:31;27.15;;;23.25;;
2652;SDS011;1336;48.692;9.144;2022-12-18T09:12:23;28.13;;;21.30;;
2652;SDS011;1336;48.692;9.144;2022-12-18T09:13:15;26.25;;;20.70;;
2652;SDS011;1336;48.692;9.144;2022-12-18T09:14:08;26.70;;;21.60;;
2652;SDS011;1336;48.692;9.144;2022-12-18T09:14:59;34.45;;;26.30;;
2652;SDS011;1336;48.692;9.144;2022-12-18T09:15:52;31.75;;;26.50;;
2652;SDS011;1336;48.692;9.144;2022-12-18T09:16:44;36.47;;;27.48;;
2652;SDS011;1336;48.692;9.144;2022-12-18T09:17:36;29.95;;;23.58;;
2652;SDS011;1336;48.692;9.144;2022-12-18T09:18:26;28.10;;;22.53;;
2652;SDS011;1336;48.692;9.144;2022-12-18T09:19:18;29.30;;;24.60;;
2652;SDS011;1336;48.692;9.144;2022-12-18T09:20:10;34.00;;;27.15;;
2652;SDS011;1336;48.692;9.144;2022-12-18T09:21:06;36.10;;;27.57;;
2652;SDS011;1336;48.692;9.144;2022-12-18T09:22:01;33.17;;;25.98;;
2652;SDS011;1336;48.692;9.144;2022-12-18T09:22:52;32.63;;;26.55;;
2652;SDS011;1336;48.692;9.144;2022-12-18T09:23:43;30.33;;;23.60;;
2652;SDS011;1336;48.692;9.144;2022-12-18T09:24:39;30.08;;;23.27;;
2652;SDS011;1336;48.692;9.144;2022-12-18T09:25:30;27.70;;;23.47;;
2652;SDS011;1336;48.692;9.144;2022-12-18T09:26:23;30.23;;;25.40;;
2652;SDS011;1336;48.692;9.144;2022-12-18T09:27:15;26.63;;;21.25;;
2652;SDS011;1336;48.692;9.144;2022-12-18T09:28:10;30.77;;;24.70;;
2652;SDS011;1336;48.692;9.144;2022-12-18T09:29:03;28.27;;;23.00;;
2652;SDS011;1336;48.692;9.144;2022-12-18T09:29:55;26.98;;;23.58;;
2652;SDS011;1336;48.692;9.144;2022-12-18T09:30:46;25.23;;;20.87;;
2652;SDS011;1336;48.692;9.144;2022-12-18T09:31:39;31.17;;;25.77;;
2652;SDS011;1336;48.692;9.144;2022-12-18T09:32:30;30.83;;;27.50;;
2652;SDS011;1336;48.692;9.144;2022-12-18T09:33:21;46.10;;;40.85;;
2652;SDS011;1336;48.692;9.144;2022-12-18T09:34:12;26.90;;;22.03;;
2652;SDS011;1336;48.692;9.144;2022-12-18T09:35:04;30.90;;;25.40;;
2652;SDS011;1336;48.692;9.144;2022-12-18T09:35:55;30.52;;;25.45;;
2652;SDS011;1336;48.692;9.144;2022-12-18T09:36:47;28.55;;;23.90;;
2652;SDS011;1336;48.692;9.144;2022-12-18T09:37:39;28.27;;;22.70;;
2652;SDS011;1336;48.692;9.144;2022-12-18T09:38:32;23.58;;;20.60;;
2652;SDS011;1336;48.692;9.144;2022-12-18T09:39:24;28.70;;;25.63;;
2652;SDS011;1336;48.692;9.144;2022-12-18T09:40:16;25.63;;;22.65;;
2652;SDS011;1336;48.692;9.144;2022-12-18T09:41:15;24.90;;;21.40;;
2652;SDS011;1336;48.692;9.144;2022-12-18T09:42:19;26.52;;;22.55;;
2652;SDS011;1336;48.692;9.144;2022-12-18T09:43:13;28.83;;;24.05;;
2652;SDS011;1336;48.692;9.144;2022-12-18T09:44:10;28.15;;;24.00;;
2652;SDS011;1336;48.692;9.144;2022-12-18T09:45:07;31.00;;;26.98;;
2652;SDS011;1336;48.692;9.144;2022-12-18T09:46:05;32.08;;;27.52;;
2652;SDS011;1336;48.692;9.144;2022-12-18T09:47:08;29.35;;;25.52;;
2652;SDS011;1336;48.692;9.144;2022-12-18T09:48:06;30.83;;;26.10;;
2652;SDS011;1336;48.692;9.144;2022-12-18T09:49:06;31.50;;;27.95;;
2652;SDS011;1336;48.692;9.144;2022-12-18T09:50:06;29.58;;;26.25;;
2652;SDS011;1336;48.692;9.144;2022-12-18T09:51:11;30.70;;;27.50;;
2652;SDS011;1336;48.692;9.144;2022-12-18T09:52:08;31.30;;;27.30;;
2652;SDS011;1336;48.692;9.144;2022-12-18T09:53:06;32.30;;;28.80;;
2652;SDS011;1336;48.692;9.144;2022-12-18T09:54:03;36.67;;;29.67;;
2652;SDS011;1336;48.692;9.144;2022-12-18T09:54:58;30.55;;;26.05;;
2652;SDS011;1336;48.692;9.144;2022-12-18T09:55:53;30.13;;;26.50;;
2652;SDS011;1336;48.692;9.144;2022-12-18T09:56:46;28.50;;;25.50;;
2652;SDS011;1336;48.692;9.144;2022-12-18T09:57:39;29.42;;;26.35;;
2652;SDS011;1336;48.692;9.144;2022-12-18T09:58:39;30.60;;;27.30;;
2652;SDS011;1336;48.692;9.144;2022-12-18T09:59:36;31.58;;;27.88;;
2652;SDS011;1336;48.692;9.144;2022-12-18T10:00:29;30.02;;;26.45;;
2652;SDS011;1336;48.692;9.144;2022-12-18T10:01:20;29.80;;;26.60;;
2652;SDS011;1336;48.692;9.144;2022-12-18T10:02:14;28.42;;;25.40;;
2652;SDS011;1336;48.692;9.144;2022-12-18T10:03:08;32.13;;;27.90;;
2652;SDS011;1336;48.692;9.144;2022-12-18T10:04:02;30.48;;;27.00;;
2652;SDS011;1336;48.692;9.144;2022-12-18T10:04:56;31.57;;;27.80;;
2652;SDS011;1336;48.692;9.144;2022-12-18T10:05:58;33.20;;;28.05;;
2652;SDS011;1336;48.692;9.144;2022-12-18T10:06:55;28.50;;;25.45;;
2652;SDS011;1336;48.692;9.144;2022-12-18T10:07:55;29.58;;;26.48;;
2652;SDS011;1336;48.692;9.144;2022-12-18T10:08:53;26.42;;;23.58;;
2652;SDS011;1336;48.692;9.144;2022-12-18T10:09:50;26.40;;;23.20;;
2652;SDS011;1336;48.692;9.144;2022-12-18T10:10:51;26.30;;;23.50;;
2652;SDS011;1336;48.692;9.144;2022-12-18T10:11:47;26.63;;;23.70;;
2652;SDS011;1336;48.692;9.144;2022-12-18T10:12:44;25.30;;;22.60;;
2652;SDS011;1336;48.692;9.144;2022-12-18T10:13:46;25.52;;;22.83;;
2652;SDS011;1336;48.692;9.144;2022-12-18T10:14:43;24.20;;;21.35;;
2652;SDS011;1336;48.692;9.144;2022-12-18T10:15:44;26.10;;;22.48;;
2652;SDS011;1336;48.692;9.144;2022-12-18T10:16:47;23.88;;;20.85;;
2652;SDS011;1336;48.692;9.144;2022-12-18T10:17:49;24.90;;;22.20;;
2652;SDS011;1336;48.692;9.144;2022-12-18T10:18:52;25.67;;;22.75;;
2652;SDS011;1336;48.692;9.144;2022-12-18T10:19:52;27.33;;;23.02;;
2652;SDS011;1336;48.692;9.144;2022-12-18T10:20:49;28.33;;;24.70;;
2652;SDS011;1336;48.692;9.144;2022-12-18T10:21:44;27.52;;;22.92;;
2652;SDS011;1336;48.692;9.144;2022-12-18T10:22:48;24.83;;;22.15;;
2652;SDS011;1336;48.692;9.144;2022-12-18T10:23:49;26.00;;;23.27;;
2652;SDS011;1336;48.692;9.144;2022-12-18T10:24:52;25.75;;;22.73;;
2652;SDS011;1336;48.692;9.144;2022-12-18T10:25:48;25.83;;;21.88;;
2652;SDS011;1336;48.692;9.144;2022-12-18T10:26:43;26.98;;;23.95;;
2652;SDS011;1336;48.692;9.144;2022-12-18T10:27:35;27.15;;;24.25;;
2652;SDS011;1336;48.692;9.144;2022-12-18T10:28:26;24.77;;;22.10;;
2652;SDS011;1336;48.692;9.144;2022-12-18T10:29:20;26.55;;;23.73;;
2652;SDS011;1336;48.692;9.144;2022-12-18T10:30:12;26.17;;;23.47;;
2652;SDS011;1336;48.692;9.144;2022-12-18T10:31:05;24.70;;;21.98;;
2652;SDS011;1336;48.692;9.144;2022-12-18T10:31:56;26.05;;;23.15;;
2652;SDS011;1336;48.692;9.144;2022-12-18T10:32:48;26.02;;;23.25;;
2652;SDS011;1336;48.692;9.144;2022-12-18T10:33:39;26.30;;;22.90;;
2652;SDS011;1336;48.692;9.144;2022-12-18T10:34:31;26.88;;;23.45;;
2652;SDS011;1336;48.692;9.144;2022-12-18T10:35:22;25.93;;;23.13;;
2652;SDS011;1336;48.692;9.144;2022-12-18T10:36:15;27.20;;;24.30;;
2652;SDS011;1336;48.692;9.144;2022-12-18T10:37:06;28.10;;;23.50;;
2652;SDS011;1336;48.692;9.144;2022-12-18T10:38:07;26.77;;;23.60;;
2652;SDS011;1336;48.692;9.144;2022-12-18T10:39:16;28.27;;;23.63;;
2652;SDS011;1336;48.692;9.144;2022-12-18T10:40:10;26.45;;;22.90;;
2652;SDS011;1336;48.692;9.144;2022-12-18T10:41:04;25.35;;;22.63;;
2652;SDS011;1336;48.692;9.144;2022-12-18T10:42:09;26.75;;;23.92;;
2652;SDS011;1336;48.692;9.144;2022-12-18T10:43:03;26.85;;;23.80;;
2652;SDS011;1336;48.692;9.144;2022-12-18T10:44:10;29.30;;;26.17;;
2652;SDS011;1336;48.692;9.144;2022-12-18T10:45:08;30.98;;;26.20;;
2652;SDS011;1336;48.692;9.144;2022-12-18T10:46:05;27.27;;;23.40;;
2652;SDS011;1336;48.692;9.144;2022-12-18T10:47:06;29.05;;;25.95;;
2652;SDS011;1336;48.692;9.144;2022-12-18T10:48:03;26.85;;;23.85;;
2652;SDS011;1336;48.692;9.144;2022-12-18T10:48:54;25.75;;;22.95;;
2652;SDS011;1336;48.692;9.144;2022-12-18T10:49:49;30.25;;;25.50;;
2652;SDS011;1336;48.692;9.144;2022-12-18T10:50:42;30.35;;;25.90;;
2652;SDS011;1336;48.692;9.144;2022-12-18T10:51:39;27.20;;;24.35;;
2652;SDS011;1336;48.692;9.144;2022-12-18T10:52:30;26.50;;;23.70;;
2652;SDS011;1336;48.692;9.144;2022-12-18T10:53:22;25.30;;;22.70;;
2652;SDS011;1336;48.692;9.144;2022-12-18T10:54:17;27.20;;;23.77;;
2652;SDS011;1336;48.692;9.144;2022-12-18T10:55:15;25.13;;;22.42;;
2652;SDS011;1336;48.692;9.144;2022-12-18T10:56:07;25.45;;;22.70;;
2652;SDS011;1336;48.692;9.144;2022-12-18T10:57:13;25.63;;;22.95;;
2652;SDS011;1336;48.692;9.144;2022-12-18T10:58:20;26.30;;;23.48;;
2652;SDS011;1336;48.692;9.144;2022-12-18T10:59:15;25.90;;;23.10;;
2652;SDS011;1336;48.692;9.144;2022-12-18T11:01:21;27.00;;;22.52;;
2652;SDS011;1336;48.692;9.144;2022-12-18T11:02:23;25.70;;;22.85;;
2652;SDS011;1336;48.692;9.144;2022-12-18T11:03:28;25.60;;;22.80;;
2652;SDS011;1336;48.692;9.144;2022-12-18T11:04:22;26.70;;;23.60;;
2652;SDS011;1336;48.692;9.144;2022-12-18T11:05:26;24.58;;;21.98;;
2652;SDS011;1336;48.692;9.144;2022-12-18T11:06:19;25.55;;;22.60;;
2652;SDS011;1336;48.692;9.144;2022-12-18T11:07:14;25.38;;;22.65;;
2652;SDS011;1336;48.692;9.144;2022-12-18T11:08:05;27.00;;;22.57;;
2652;SDS011;1336;48.692;9.144;2022-12-18T11:09:18;24.52;;;21.83;;
2652;SDS011;1336;48.692;9.144;2022-12-18T11:10:15;24.67;;;22.10;;
2652;SDS011;1336;48.692;9.144;2022-12-18T11:11:14;25.50;;;22.67;;
2652;SDS011;1336;48.692;9.144;2022-12-18T11:12:15;24.77;;;22.00;;
2652;SDS011;1336;48.692;9.144;2022-12-18T11:13:09;27.83;;;24.70;;
2652;SDS011;1336;48.692;9.144;2022-12-18T11:14:02;27.13;;;24.08;;
2652;SDS011;1336;48.692;9.144;2022-12-18T11:14:55;26.75;;;23.95;;
2652;SDS011;1336;48.692;9.144;2022-12-18T11:15:50;25.38;;;22.70;;
2652;SDS011;1336;48.692;9.144;2022-12-18T11:16:42;25.27;;;22.67;;
2652;SDS011;1336;48.692;9.144;2022-12-18T11:17:35;26.15;;;23.35;;
2652;SDS011;1336;48.692;9.144;2022-12-18T11:18:28;26.08;;;23.00;;
2652;SDS011;1336;48.692;9.144;2022-12-18T11:19:21;27.55;;;24.20;;
2652;SDS011;1336;48.692;9.144;2022-12-18T11:20:24;25.20;;;22.50;;
2652;SDS011;1336;48.692;9.144;2022-12-18T11:21:20;25.17;;;22.48;;
2652;SDS011;1336;48.692;9.144;2022-12-18T11:22:19;27.05;;;24.02;;
2652;SDS011;1336;48.692;9.144;2022-12-18T11:23:11;27.52;;;24.55;;